sensor_id;sensor_type;location;lat;lon;timestamp;P1;durP1;ratioP1;P2;durP2;ratioP2
13366;SDS011;6752;52.612;13.630;2023-05-21T00:03:50;144.15;;;45.60;;
13366;SDS011;6752;52.612;13.630;2023-05-21T00:08:52;46.08;;;28.23;;
13366;SDS011;6752;52.612;13.630;2023-05-21T00:13:54;104.25;;;35.60;;
13366;SDS011;6752;52.612;13.630;2023-05-21T00:18:57;102.72;;;41.08;;
13366;SDS011;6752;52.612;13.630;2023-05-21T00:23:59;75.43;;;36.15;;
13366;SDS011;6752;52.612;13.630;2023-05-21T00:29:02;46.13;;;28.73;;
13366;SDS011;6752;52.612;13.630;2023-05-21T00:34:04;46.37;;;31.70;;
13366;SDS011;6752;52.612;13.630;2023-05-21T00:39:06;75.07;;;35.50;;
13366;SDS011;6752;52.612;13.630;2023-05-21T00:44:09;37.25;;;27.80;;
13366;SDS011;6752;52.612;13.630;2023-05-21T00:49:11;59.38;;;36.63;;
13366;SDS011;6752;52.612;13.630;2023-05-21T00:54:13;46.25;;;30.33;;
13366;SDS011;6752;52.612;13.630;2023-05-21T00:59:16;140.80;;;50.97;;
13366;SDS011;6752;52.612;13.630;2023-05-21T01:04:18;51.17;;;32.05;;
13366;SDS011;6752;52.612;13.630;2023-05-21T01:09:21;135.50;;;43.60;;
13366;SDS011;6752;52.612;13.630;2023-05-21T01:14:23;32.58;;;28.42;;
13366;SDS011;6752;52.612;13.630;2023-05-21T01:19:25;74.35;;;33.97;;
13366;SDS011;6752;52.612;13.630;2023-05-21T01:24:28;1915.57;;;238.07;;
13366;SDS011;6752;52.612;13.630;2023-05-21T01:29:30;37.50;;;32.00;;
13366;SDS011;6752;52.612;13.630;2023-05-21T01:34:37;48.80;;;37.17;;
13366;SDS011;6752;52.612;13.630;2023-05-21T01:39:38;47.13;;;35.35;;
13366;SDS011;6752;52.612;13.630;2023-05-21T01:44:40;48.92;;;37.65;;
13366;SDS011;6752;52.612;13.630;2023-05-21T01:49:42;857.47;;;124.82;;
13366;SDS011;6752;52.612;13.630;2023-05-21T01:54:45;577.33;;;109.65;;
13366;SDS011;6752;52.612;13.630;2023-05-21T01:59:47;58.10;;;44.65;;
13366;SDS011;6752;52.612;13.630;2023-05-21T02:04:49;206.40;;;65.53;;
13366;SDS011;6752;52.612;13.630;2023-05-21T02:09:52;65.00;;;46.67;;
13366;SDS011;6752;52.612;13.630;2023-05-21T02:19:56;96.97;;;46.70;;
13366;SDS011;6752;52.612;13.630;2023-05-21T02:24:58;77.75;;;42.25;;
13366;SDS011;6752;52.612;13.630;2023-05-21T02:35:03;1382.15;;;181.25;;
13366;SDS011;6752;52.612;13.630;2023-05-21T02:40:06;142.52;;;65.47;;
13366;SDS011;6752;52.612;13.630;2023-05-21T02:45:08;334.27;;;83.43;;
13366;SDS011;6752;52.612;13.630;2023-05-21T02:50:12;127.28;;;62.15;;
13366;SDS011;6752;52.612;13.630;2023-05-21T03:00:15;68.70;;;49.20;;
13366;SDS011;6752;52.612;13.630;2023-05-21T03:05:17;131.48;;;51.67;;
13366;SDS011;6752;52.612;13.630;2023-05-21T03:10:19;90.38;;;53.13;;
13366;SDS011;6752;52.612;13.630;2023-05-21T03:15:22;71.25;;;49.92;;
13366;SDS011;6752;52.612;13.630;2023-05-21T03:20:24;113.72;;;51.67;;
13366;SDS011;6752;52.612;13.630;2023-05-21T03:25:27;1999.90;;;999.90;;
13366;SDS011;6752;52.612;13.630;2023-05-21T03:30:29;639.90;;;148.45;;
13366;SDS011;6752;52.612;13.630;2023-05-21T03:35:31;228.30;;;62.65;;
13366;SDS011;6752;52.612;13.630;2023-05-21T03:40:38;104.32;;;49.53;;
13366;SDS011;6752;52.612;13.630;2023-05-21T03:45:36;64.97;;;49.63;;
13366;SDS011;6752;52.612;13.630;2023-05-21T03:50:38;256.85;;;78.00;;
13366;SDS011;6752;52.612;13.630;2023-05-21T03:55:43;140.57;;;54.80;;
13366;SDS011;6752;52.612;13.630;2023-05-21T04:00:46;1104.90;;;185.05;;
13366;SDS011;6752;52.612;13.630;2023-05-21T04:05:48;109.75;;;57.95;;
13366;SDS011;6752;52.612;13.630;2023-05-21T04:10:50;186.85;;;62.60;;
13366;SDS011;6752;52.612;13.630;2023-05-21T04:15:53;1544.22;;;206.70;;
13366;SDS011;6752;52.612;13.630;2023-05-21T04:20:55;763.25;;;137.48;;
13366;SDS011;6752;52.612;13.630;2023-05-21T04:25:58;110.37;;;58.92;;
13366;SDS011;6752;52.612;13.630;2023-05-21T04:31:00;1999.90;;;999.90;;
13366;SDS011;6752;52.612;13.630;2023-05-21T04:36:02;1997.50;;;317.87;;
13366;SDS011;6752;52.612;13.630;2023-05-21T04:41:05;694.90;;;146.25;;
13366;SDS011;6752;52.612;13.630;2023-05-21T04:46:07;181.43;;;71.30;;
13366;SDS011;6752;52.612;13.630;2023-05-21T04:51:10;238.75;;;79.10;;
13366;SDS011;6752;52.612;13.630;2023-05-21T04:56:12;635.13;;;124.25;;
13366;SDS011;6752;52.612;13.630;2023-05-21T05:01:14;817.80;;;150.00;;
13366;SDS011;6752;52.612;13.630;2023-05-21T05:06:17;650.80;;;133.77;;
13366;SDS011;6752;52.612;13.630;2023-05-21T05:11:19;1999.90;;;380.30;;
13366;SDS011;6752;52.612;13.630;2023-05-21T05:16:21;1358.72;;;232.05;;
13366;SDS011;6752;52.612;13.630;2023-05-21T05:21:24;1999.90;;;414.77;;
13366;SDS011;6752;52.612;13.630;2023-05-21T05:26:26;1999.90;;;411.92;;
13366;SDS011;6752;52.612;13.630;2023-05-21T05:31:29;1999.90;;;509.02;;
13366;SDS011;6752;52.612;13.630;2023-05-21T05:36:31;1999.90;;;544.28;;
13366;SDS011;6752;52.612;13.630;2023-05-21T05:41:33;1999.90;;;431.02;;
13366;SDS011;6752;52.612;13.630;2023-05-21T05:46:36;1999.90;;;579.58;;
13366;SDS011;6752;52.612;13.630;2023-05-21T05:51:38;1999.90;;;533.22;;
13366;SDS011;6752;52.612;13.630;2023-05-21T05:56:41;1999.90;;;440.55;;
13366;SDS011;6752;52.612;13.630;2023-05-21T06:01:43;1999.90;;;547.70;;
13366;SDS011;6752;52.612;13.630;2023-05-21T06:06:45;1999.90;;;559.60;;
13366;SDS011;6752;52.612;13.630;2023-05-21T06:11:48;1999.90;;;662.15;;
13366;SDS011;6752;52.612;13.630;2023-05-21T06:16:50;1999.90;;;586.05;;
13366;SDS011;6752;52.612;13.630;2023-05-21T06:21:53;1999.90;;;673.08;;
13366;SDS011;6752;52.612;13.630;2023-05-21T06:26:55;1999.90;;;558.67;;
13366;SDS011;6752;52.612;13.630;2023-05-21T06:31:57;1999.90;;;999.90;;
13366;SDS011;6752;52.612;13.630;2023-05-21T06:37:00;1999.90;;;999.90;;
13366;SDS011;6752;52.612;13.630;2023-05-21T06:42:02;1999.90;;;999.90;;
13366;SDS011;6752;52.612;13.630;2023-05-21T06:47:04;1999.90;;;850.97;;
13366;SDS011;6752;52.612;13.630;2023-05-21T06:52:07;1999.90;;;731.97;;
13366;SDS011;6752;52.612;13.630;2023-05-21T06:57:09;1999.90;;;541.70;;
13366;SDS011;6752;52.612;13.630;2023-05-21T07:02:12;1999.90;;;737.80;;
13366;SDS011;6752;52.612;13.630;2023-05-21T07:07:14;1999.90;;;671.25;;
13366;SDS011;6752;52.612;13.630;2023-05-21T07:12:16;1999.90;;;806.90;;
13366;SDS011;6752;52.612;13.630;2023-05-21T07:17:19;1999.90;;;638.53;;
13366;SDS011;6752;52.612;13.630;2023-05-21T07:22:21;1999.90;;;780.22;;
13366;SDS011;6752;52.612;13.630;2023-05-21T07:42:29;1999.90;;;705.60;;
13366;SDS011;6752;52.612;13.630;2023-05-21T07:47:32;1999.90;;;653.92;;
13366;SDS011;6752;52.612;13.630;2023-05-21T07:52:34;1999.90;;;848.03;;
13366;SDS011;6752;52.612;13.630;2023-05-21T07:57:36;1999.90;;;856.22;;
13366;SDS011;6752;52.612;13.630;2023-05-21T08:02:39;1999.90;;;657.42;;
13366;SDS011;6752;52.612;13.630;2023-05-21T08:07:41;1999.90;;;660.58;;
13366;SDS011;6752;52.612;13.630;2023-05-21T08:12:43;1999.90;;;823.20;;
13366;SDS011;6752;52.612;13.630;2023-05-21T08:22:51;1999.90;;;845.70;;
13366;SDS011;6752;52.612;13.630;2023-05-21T08:27:53;1999.90;;;848.35;;
13366;SDS011;6752;52.612;13.630;2023-05-21T08:32:55;1999.90;;;907.83;;
13366;SDS011;6752;52.612;13.630;2023-05-21T08:37:58;1999.90;;;851.80;;
13366;SDS011;6752;52.612;13.630;2023-05-21T08:43:00;1999.90;;;895.70;;
13366;SDS011;6752;52.612;13.630;2023-05-21T08:48:07;1999.90;;;975.47;;
13366;SDS011;6752;52.612;13.630;2023-05-21T08:53:05;1999.90;;;952.42;;
13366;SDS011;6752;52.612;13.630;2023-05-21T08:58:07;1999.90;;;999.90;;
13366;SDS011;6752;52.612;13.630;2023-05-21T09:03:10;1999.90;;;999.90;;
13366;SDS011;6752;52.612;13.630;2023-05-21T09:08:13;1999.90;;;999.90;;
13366;SDS011;6752;52.612;13.630;2023-05-21T09:13:20;1999.90;;;999.90;;
13366;SDS011;6752;52.612;13.630;2023-05-21T09:18:22;1999.90;;;999.90;;
13366;SDS011;6752;52.612;13.630;2023-05-21T09:23:25;1999.90;;;903.90;;
13366;SDS011;6752;52.612;13.630;2023-05-21T09:28:28;1999.90;;;945.00;;
13366;SDS011;6752;52.612;13.630;2023-05-21T09:38:32;1999.90;;;933.03;;
13366;SDS011;6752;52.612;13.630;2023-05-21T09:43:34;1999.90;;;955.58;;
13366;SDS011;6752;52.612;13.630;2023-05-21T09:53:53;1999.90;;;846.70;;
13366;SDS011;6752;52.612;13.630;2023-05-21T09:58:56;1999.90;;;995.12;;
13366;SDS011;6752;52.612;13.630;2023-05-21T10:03:58;1999.90;;;999.90;;
13366;SDS011;6752;52.612;13.630;2023-05-21T10:09:01;1999.90;;;974.03;;
13366;SDS011;6752;52.612;13.630;2023-05-21T10:14:05;1999.90;;;950.40;;
13366;SDS011;6752;52.612;13.630;2023-05-21T10:19:07;1999.90;;;872.72;;
13366;SDS011;6752;52.612;13.630;2023-05-21T10:24:12;1999.90;;;954.78;;
13366;SDS011;6752;52.612;13.630;2023-05-21T10:29:16;1999.90;;;998.33;;
13366;SDS011;6752;52.612;13.630;2023-05-21T10:34:18;1999.90;;;843.75;;
13366;SDS011;6752;52.612;13.630;2023-05-21T10:39:20;1999.90;;;929.12;;
13366;SDS011;6752;52.612;13.630;2023-05-21T10:49:53;1999.90;;;930.03;;
13366;SDS011;6752;52.612;13.630;2023-05-21T10:55:12;1999.90;;;933.95;;
13366;SDS011;6752;52.612;13.630;2023-05-21T11:00:13;1999.90;;;952.08;;
13366;SDS011;6752;52.612;13.630;2023-05-21T11:05:15;1999.90;;;999.90;;
13366;SDS011;6752;52.612;13.630;2023-05-21T11:21:05;1999.90;;;994.00;;
13366;SDS011;6752;52.612;13.630;2023-05-21T11:26:07;1999.90;;;850.72;;
13366;SDS011;6752;52.612;13.630;2023-05-21T11:31:25;1999.90;;;999.90;;
13366;SDS011;6752;52.612;13.630;2023-05-21T11:36:27;1999.90;;;999.90;;
13366;SDS011;6752;52.612;13.630;2023-05-21T11:41:29;1999.90;;;997.10;;
13366;SDS011;6752;52.612;13.630;2023-05-21T11:46:31;1999.90;;;999.90;;
13366;SDS011;6752;52.612;13.630;2023-05-21T11:51:38;1999.90;;;876.10;;
13366;SDS011;6752;52.612;13.630;2023-05-21T11:56:39;1999.90;;;876.67;;
13366;SDS011;6752;52.612;13.630;2023-05-21T12:01:42;1999.90;;;935.03;;
13366;SDS011;6752;52.612;13.630;2023-05-21T12:06:43;1999.90;;;972.33;;
13366;SDS011;6752;52.612;13.630;2023-05-21T12:11:47;1999.90;;;965.03;;
13366;SDS011;6752;52.612;13.630;2023-05-21T12:16:50;1999.90;;;999.90;;
13366;SDS011;6752;52.612;13.630;2023-05-21T12:21:52;1999.90;;;999.90;;
13366;SDS011;6752;52.612;13.630;2023-05-21T12:26:54;1999.90;;;976.50;;
13366;SDS011;6752;52.612;13.630;2023-05-21T12:32:00;1999.90;;;881.40;;
13366;SDS011;6752;52.612;13.630;2023-05-21T12:37:02;1999.90;;;996.80;;
13366;SDS011;6752;52.612;13.630;2023-05-21T12:42:04;1999.90;;;956.33;;
13366;SDS011;6752;52.612;13.630;2023-05-21T12:47:07;1999.90;;;986.35;;
13366;SDS011;6752;52.612;13.630;2023-05-21T12:57:20;1999.90;;;999.90;;
13366;SDS011;6752;52.612;13.630;2023-05-21T13:02:45;1999.90;;;956.83;;
13366;SDS011;6752;52.612;13.630;2023-05-21T13:12:29;1999.90;;;933.00;;
13366;SDS011;6752;52.612;13.630;2023-05-21T13:22:38;1999.90;;;984.35;;
13366;SDS011;6752;52.612;13.630;2023-05-21T13:32:41;1999.90;;;999.90;;
13366;SDS011;6752;52.612;13.630;2023-05-21T13:37:43;1999.90;;;999.90;;
13366;SDS011;6752;52.612;13.630;2023-05-21T13:42:46;1999.90;;;994.47;;
13366;SDS011;6752;52.612;13.630;2023-05-21T13:47:48;1999.90;;;999.08;;
13366;SDS011;6752;52.612;13.630;2023-05-21T13:52:50;1999.90;;;971.12;;
13366;SDS011;6752;52.612;13.630;2023-05-21T13:57:53;1999.90;;;944.22;;
13366;SDS011;6752;52.612;13.630;2023-05-21T14:02:55;1999.90;;;995.08;;
13366;SDS011;6752;52.612;13.630;2023-05-21T14:07:57;1999.90;;;989.85;;
13366;SDS011;6752;52.612;13.630;2023-05-21T14:13:00;1999.90;;;999.90;;
13366;SDS011;6752;52.612;13.630;2023-05-21T14:28:06;1999.90;;;985.30;;
13366;SDS011;6752;52.612;13.630;2023-05-21T14:33:08;1999.90;;;950.72;;
13366;SDS011;6752;52.612;13.630;2023-05-21T14:38:11;1999.90;;;950.17;;
13366;SDS011;6752;52.612;13.630;2023-05-21T14:43:13;1999.90;;;999.90;;
13366;SDS011;6752;52.612;13.630;2023-05-21T14:53:17;1999.90;;;959.92;;
13366;SDS011;6752;52.612;13.630;2023-05-21T14:58:20;1999.90;;;999.90;;
13366;SDS011;6752;52.612;13.630;2023-05-21T15:03:22;1999.90;;;925.55;;
13366;SDS011;6752;52.612;13.630;2023-05-21T15:08:24;1999.90;;;999.90;;
13366;SDS011;6752;52.612;13.630;2023-05-21T15:13:27;1999.90;;;999.90;;
13366;SDS011;6752;52.612;13.630;2023-05-21T15:18:29;1999.90;;;984.47;;
13366;SDS011;6752;52.612;13.630;2023-05-21T15:23:32;1999.90;;;990.67;;
13366;SDS011;6752;52.612;13.630;2023-05-21T15:28:34;1999.90;;;999.90;;
13366;SDS011;6752;52.612;13.630;2023-05-21T15:33:36;1999.90;;;999.90;;
13366;SDS011;6752;52.612;13.630;2023-05-21T15:38:39;1999.90;;;999.90;;
13366;SDS011;6752;52.612;13.630;2023-05-21T15:43:41;1999.90;;;976.08;;
13366;SDS011;6752;52.612;13.630;2023-05-21T15:48:44;1999.90;;;999.90;;
13366;SDS011;6752;52.612;13.630;2023-05-21T15:53:46;1999.90;;;999.90;;
13366;SDS011;6752;52.612;13.630;2023-05-21T15:58:48;1999.90;;;967.95;;
13366;SDS011;6752;52.612;13.630;2023-05-21T16:03:51;1999.90;;;999.90;;
13366;SDS011;6752;52.612;13.630;2023-05-21T16:08:53;1999.90;;;999.90;;
13366;SDS011;6752;52.612;13.630;2023-05-21T16:13:55;1999.90;;;900.97;;
13366;SDS011;6752;52.612;13.630;2023-05-21T16:18:58;1999.90;;;984.25;;
13366;SDS011;6752;52.612;13.630;2023-05-21T16:24:00;1999.90;;;952.45;;
13366;SDS011;6752;52.612;13.630;2023-05-21T16:29:03;1999.90;;;961.20;;
13366;SDS011;6752;52.612;13.630;2023-05-21T16:34:05;1999.90;;;999.90;;
13366;SDS011;6752;52.612;13.630;2023-05-21T16:39:07;1999.90;;;999.90;;
13366;SDS011;6752;52.612;13.630;2023-05-21T16:44:10;1999.90;;;961.15;;
13366;SDS011;6752;52.612;13.630;2023-05-21T16:49:12;1999.90;;;954.25;;
13366;SDS011;6752;52.612;13.630;2023-05-21T17:04:18;1999.90;;;946.08;;
13366;SDS011;6752;52.612;13.630;2023-05-21T17:19:24;1999.90;;;949.65;;
13366;SDS011;6752;52.612;13.630;2023-05-21T17:24:27;1999.90;;;972.28;;
13366;SDS011;6752;52.612;13.630;2023-05-21T17:29:29;1999.90;;;986.47;;
13366;SDS011;6752;52.612;13.630;2023-05-21T17:34:32;1999.90;;;999.90;;
13366;SDS011;6752;52.612;13.630;2023-05-21T17:39:34;1999.90;;;939.50;;
13366;SDS011;6752;52.612;13.630;2023-05-21T17:44:36;1999.90;;;937.90;;
13366;SDS011;6752;52.612;13.630;2023-05-21T17:49:39;1999.90;;;989.05;;
13366;SDS011;6752;52.612;13.630;2023-05-21T17:54:41;1999.90;;;985.13;;
13366;SDS011;6752;52.612;13.630;2023-05-21T17:59:43;1999.90;;;940.42;;
13366;SDS011;6752;52.612;13.630;2023-05-21T18:04:46;1999.90;;;997.55;;
13366;SDS011;6752;52.612;13.630;2023-05-21T18:09:48;1999.90;;;880.97;;
13366;SDS011;6752;52.612;13.630;2023-05-21T18:14:51;1999.90;;;963.17;;
13366;SDS011;6752;52.612;13.630;2023-05-21T18:19:53;1999.90;;;983.13;;
13366;SDS011;6752;52.612;13.630;2023-05-21T18:24:55;1999.90;;;905.78;;
13366;SDS011;6752;52.612;13.630;2023-05-21T18:29:58;1999.90;;;961.12;;
13366;SDS011;6752;52.612;13.630;2023-05-21T18:35:00;1999.90;;;909.88;;
13366;SDS011;6752;52.612;13.630;2023-05-21T18:40:03;1999.90;;;909.42;;
13366;SDS011;6752;52.612;13.630;2023-05-21T18:45:05;1999.90;;;880.70;;
13366;SDS011;6752;52.612;13.630;2023-05-21T18:50:08;1999.90;;;900.70;;
13366;SDS011;6752;52.612;13.630;2023-05-21T19:15:17;1999.90;;;748.60;;
13366;SDS011;6752;52.612;13.630;2023-05-21T19:25:25;1999.90;;;815.08;;
13366;SDS011;6752;52.612;13.630;2023-05-21T19:30:27;1999.90;;;999.90;;
13366;SDS011;6752;52.612;13.630;2023-05-21T19:35:29;1999.90;;;996.17;;
13366;SDS011;6752;52.612;13.630;2023-05-21T19:40:32;1999.90;;;857.17;;
13366;SDS011;6752;52.612;13.630;2023-05-21T19:45:34;1999.90;;;757.35;;
13366;SDS011;6752;52.612;13.630;2023-05-21T19:50:37;1999.90;;;781.67;;
13366;SDS011;6752;52.612;13.630;2023-05-21T19:55:39;1999.90;;;721.25;;
13366;SDS011;6752;52.612;13.630;2023-05-21T20:00:41;1999.90;;;664.05;;
13366;SDS011;6752;52.612;13.630;2023-05-21T20:05:44;1999.90;;;657.58;;
13366;SDS011;6752;52.612;13.630;2023-05-21T20:10:46;1999.90;;;614.17;;
13366;SDS011;6752;52.612;13.630;2023-05-21T20:15:49;1999.90;;;650.08;;
13366;SDS011;6752;52.612;13.630;2023-05-21T20:20:51;1999.90;;;563.47;;
13366;SDS011;6752;52.612;13.630;2023-05-21T20:25:53;1999.90;;;594.30;;
13366;SDS011;6752;52.612;13.630;2023-05-21T20:30:56;1999.90;;;632.58;;
13366;SDS011;6752;52.612;13.630;2023-05-21T20:35:58;1999.90;;;640.67;;
13366;SDS011;6752;52.612;13.630;2023-05-21T20:41:00;1999.90;;;652.72;;
13366;SDS011;6752;52.612;13.630;2023-05-21T20:46:03;1999.90;;;675.95;;
13366;SDS011;6752;52.612;13.630;2023-05-21T20:51:05;1999.90;;;612.97;;
13366;SDS011;6752;52.612;13.630;2023-05-21T20:56:08;1999.90;;;640.45;;
13366;SDS011;6752;52.612;13.630;2023-05-21T21:01:10;1999.90;;;552.92;;
13366;SDS011;6752;52.612;13.630;2023-05-21T21:06:13;1999.90;;;737.42;;
13366;SDS011;6752;52.612;13.630;2023-05-21T21:11:15;1999.90;;;613.83;;
13366;SDS011;6752;52.612;13.630;2023-05-21T21:16:17;1999.90;;;672.35;;
13366;SDS011;6752;52.612;13.630;2023-05-21T21:21:20;1999.90;;;596.15;;
13366;SDS011;6752;52.612;13.630;2023-05-21T21:26:22;1999.90;;;608.92;;
13366;SDS011;6752;52.612;13.630;2023-05-21T21:31:24;1999.90;;;999.90;;
13366;SDS011;6752;52.612;13.630;2023-05-21T21:36:27;1999.90;;;999.90;;
13366;SDS011;6752;52.612;13.630;2023-05-21T21:41:29;1999.90;;;810.95;;
13366;SDS011;6752;52.612;13.630;2023-05-21T21:51:33;1999.90;;;521.25;;
13366;SDS011;6752;52.612;13.630;2023-05-21T21:56:36;1999.90;;;639.53;;
13366;SDS011;6752;52.612;13.630;2023-05-21T22:01:38;1999.90;;;718.33;;
13366;SDS011;6752;52.612;13.630;2023-05-21T22:06:40;1999.90;;;612.20;;
13366;SDS011;6752;52.612;13.630;2023-05-21T22:11:43;1999.90;;;634.25;;
13366;SDS011;6752;52.612;13.630;2023-05-21T22:16:45;1999.90;;;692.03;;
13366;SDS011;6752;52.612;13.630;2023-05-21T22:36:53;1999.90;;;491.17;;
13366;SDS011;6752;52.612;13.630;2023-05-21T22:41:56;1999.90;;;405.52;;
13366;SDS011;6752;52.612;13.630;2023-05-21T22:46:58;1999.90;;;746.70;;
13366;SDS011;6752;52.612;13.630;2023-05-21T22:52:00;1999.90;;;625.65;;
13366;SDS011;6752;52.612;13.630;2023-05-21T22:57:03;1999.90;;;645.30;;
13366;SDS011;6752;52.612;13.630;2023-05-21T23:07:07;1999.90;;;468.83;;
13366;SDS011;6752;52.612;13.630;2023-05-21T23:12:10;1999.90;;;550.42;;
13366;SDS011;6752;52.612;13.630;2023-05-21T23:17:12;1999.90;;;507.00;;
13366;SDS011;6752;52.612;13.630;2023-05-21T23:22:14;1999.90;;;352.62;;
13366;SDS011;6752;52.612;13.630;2023-05-21T23:27:17;1999.90;;;999.90;;
13366;SDS011;6752;52.612;13.630;2023-05-21T23:32:19;1999.90;;;668.17;;
13366;SDS011;6752;52.612;13.630;2023-05-21T23:37:21;1999.90;;;999.90;;
13366;SDS011;6752;52.612;13.630;2023-05-21T23:42:24;1999.90;;;601.80;;
13366;SDS011;6752;52.612;13.630;2023-05-21T23:47:26;1999.90;;;509.23;;
13366;SDS011;6752;52.612;13.630;2023-05-21T23:52:29;1999.90;;;694.22;;
13366;SDS011;6752;52.612;13.630;2023-05-21T23:57:31;1999.90;;;541.28;;
